Irondale, Colorado
Current Conditions -  °F | °C
As of 7:53 PM on Friday 21 Nov 2014 (Local Time) from KDEN Reporting Station
Few Clouds Few Clouds  
Wind Chill: 30°   Ceiling: Unl
Heat Index: 36°   Visibility: 10mi
Dew Point: 24°   Wind: 7mph
Humidity: 62%   Direction: 230°SW
Pressure: 29.97"   Gusts: NA
Location:  39.8641°N, 104.821°W
Report Text: KDEN 220253Z 23006KT 10SM FEW240 02/M04 A2997 RMK AO2 SLP145 T00221044 53010
Loading
Personal Weather Stations






























Interactive Weather Map New forecast layout! Learn more

10-Day Weather Forecast

Advertisements
Track Severe Weather on mobile